Bay Terrace, New York
Current Conditions -  °F | °C
As of 7:51 PM on Saturday 22 Nov 2014 (Local Time) from KLGA Reporting Station
Broken Clouds Broken Clouds  
Wind Chill: 37°   Ceiling: 11000
Heat Index: 43°   Visibility: 10mi
Dew Point: 20°   Wind: 10mph
Humidity: 40%   Direction: 220°SW
Pressure: 30.23"   Gusts: NA
Location:  40.7825°N, 73.7809°W
Report Text: KLGA 230051Z 22009KT 10SM FEW065 SCT080 BKN110 BKN260 06/M07 A3023 RMK AO2 SLP235 T00611067
Loading
Personal Weather Stations






























Interactive Weather Map New forecast layout! Learn more

10-Day Weather Forecast

Advertisements
Track Severe Weather on mobile